sensor_id;sensor_type;location;lat;lon;timestamp;P1;durP1;ratioP1;P2;durP2;ratioP2
29960;SDS011;16816;44.444;26.152;2022-10-23T00:04:21;19.67;;;10.77;;
29960;SDS011;16816;44.444;26.152;2022-10-23T00:09:26;16.45;;;10.10;;
29960;SDS011;16816;44.444;26.152;2022-10-23T00:14:31;14.98;;;10.85;;
29960;SDS011;16816;44.444;26.152;2022-10-23T00:19:35;16.50;;;11.02;;
29960;SDS011;16816;44.444;26.152;2022-10-23T00:24:39;20.48;;;12.15;;
29960;SDS011;16816;44.444;26.152;2022-10-23T00:29:44;18.33;;;10.88;;
29960;SDS011;16816;44.444;26.152;2022-10-23T00:34:48;14.35;;;11.02;;
29960;SDS011;16816;44.444;26.152;2022-10-23T00:39:52;18.90;;;11.43;;
29960;SDS011;16816;44.444;26.152;2022-10-23T00:45:12;15.27;;;11.43;;
29960;SDS011;16816;44.444;26.152;2022-10-23T00:50:19;16.05;;;11.50;;
29960;SDS011;16816;44.444;26.152;2022-10-23T00:55:24;19.90;;;10.60;;
29960;SDS011;16816;44.444;26.152;2022-10-23T01:00:45;23.27;;;11.77;;
29960;SDS011;16816;44.444;26.152;2022-10-23T01:05:55;21.52;;;11.80;;
29960;SDS011;16816;44.444;26.152;2022-10-23T01:11:06;17.10;;;11.60;;
29960;SDS011;16816;44.444;26.152;2022-10-23T01:16:15;20.95;;;11.75;;
29960;SDS011;16816;44.444;26.152;2022-10-23T01:21:22;16.40;;;11.93;;
29960;SDS011;16816;44.444;26.152;2022-10-23T01:26:35;15.65;;;11.23;;
29960;SDS011;16816;44.444;26.152;2022-10-23T01:31:52;22.42;;;12.10;;
29960;SDS011;16816;44.444;26.152;2022-10-23T01:36:59;16.30;;;11.90;;
29960;SDS011;16816;44.444;26.152;2022-10-23T01:42:05;17.33;;;11.77;;
29960;SDS011;16816;44.444;26.152;2022-10-23T01:47:14;18.70;;;11.32;;
29960;SDS011;16816;44.444;26.152;2022-10-23T01:52:36;20.45;;;11.73;;
29960;SDS011;16816;44.444;26.152;2022-10-23T01:57:40;18.92;;;12.43;;
29960;SDS011;16816;44.444;26.152;2022-10-23T02:02:48;18.83;;;11.45;;
29960;SDS011;16816;44.444;26.152;2022-10-23T02:07:56;17.60;;;12.20;;
29960;SDS011;16816;44.444;26.152;2022-10-23T02:13:02;22.30;;;12.43;;
29960;SDS011;16816;44.444;26.152;2022-10-23T02:18:11;18.50;;;12.50;;
29960;SDS011;16816;44.444;26.152;2022-10-23T02:23:19;23.50;;;12.43;;
29960;SDS011;16816;44.444;26.152;2022-10-23T02:28:26;17.25;;;12.02;;
29960;SDS011;16816;44.444;26.152;2022-10-23T02:33:36;15.48;;;11.43;;
29960;SDS011;16816;44.444;26.152;2022-10-23T02:38:41;22.83;;;11.65;;
29960;SDS011;16816;44.444;26.152;2022-10-23T02:43:49;26.50;;;11.70;;
29960;SDS011;16816;44.444;26.152;2022-10-23T02:48:59;17.50;;;11.52;;
29960;SDS011;16816;44.444;26.152;2022-10-23T02:54:07;21.63;;;11.57;;
29960;SDS011;16816;44.444;26.152;2022-10-23T02:59:19;18.27;;;11.57;;
29960;SDS011;16816;44.444;26.152;2022-10-23T03:04:28;17.65;;;11.80;;
29960;SDS011;16816;44.444;26.152;2022-10-23T03:09:33;19.48;;;11.50;;
29960;SDS011;16816;44.444;26.152;2022-10-23T03:14:37;20.00;;;12.18;;
29960;SDS011;16816;44.444;26.152;2022-10-23T03:19:43;19.42;;;11.98;;
29960;SDS011;16816;44.444;26.152;2022-10-23T03:24:48;16.42;;;10.70;;
29960;SDS011;16816;44.444;26.152;2022-10-23T03:29:52;17.10;;;12.20;;
29960;SDS011;16816;44.444;26.152;2022-10-23T03:34:57;16.63;;;11.43;;
29960;SDS011;16816;44.444;26.152;2022-10-23T03:40:01;19.43;;;11.67;;
29960;SDS011;16816;44.444;26.152;2022-10-23T03:45:09;18.02;;;12.20;;
29960;SDS011;16816;44.444;26.152;2022-10-23T03:50:14;19.92;;;12.80;;
29960;SDS011;16816;44.444;26.152;2022-10-23T03:55:18;19.63;;;11.80;;
29960;SDS011;16816;44.444;26.152;2022-10-23T04:00:22;19.38;;;13.13;;
29960;SDS011;16816;44.444;26.152;2022-10-23T04:05:27;20.25;;;11.93;;
29960;SDS011;16816;44.444;26.152;2022-10-23T04:10:32;20.90;;;12.23;;
29960;SDS011;16816;44.444;26.152;2022-10-23T04:15:36;20.08;;;12.48;;
29960;SDS011;16816;44.444;26.152;2022-10-23T04:20:41;19.70;;;13.38;;
29960;SDS011;16816;44.444;26.152;2022-10-23T04:25:45;21.87;;;13.90;;
29960;SDS011;16816;44.444;26.152;2022-10-23T04:30:58;24.95;;;13.82;;
29960;SDS011;16816;44.444;26.152;2022-10-23T04:36:03;20.20;;;12.98;;
29960;SDS011;16816;44.444;26.152;2022-10-23T04:46:11;18.92;;;13.30;;
29960;SDS011;16816;44.444;26.152;2022-10-23T04:51:16;29.17;;;14.18;;
29960;SDS011;16816;44.444;26.152;2022-10-23T04:56:38;18.35;;;14.25;;
29960;SDS011;16816;44.444;26.152;2022-10-23T05:01:47;21.80;;;14.30;;
29960;SDS011;16816;44.444;26.152;2022-10-23T05:06:54;21.80;;;14.63;;
29960;SDS011;16816;44.444;26.152;2022-10-23T05:12:20;20.90;;;14.63;;
29960;SDS011;16816;44.444;26.152;2022-10-23T05:17:27;19.73;;;14.68;;
29960;SDS011;16816;44.444;26.152;2022-10-23T05:22:35;23.15;;;14.65;;
29960;SDS011;16816;44.444;26.152;2022-10-23T05:27:44;20.20;;;14.13;;
29960;SDS011;16816;44.444;26.152;2022-10-23T05:32:50;23.13;;;15.15;;
29960;SDS011;16816;44.444;26.152;2022-10-23T05:37:57;21.40;;;15.02;;
29960;SDS011;16816;44.444;26.152;2022-10-23T05:43:02;20.58;;;14.65;;
29960;SDS011;16816;44.444;26.152;2022-10-23T05:48:19;20.27;;;14.82;;
29960;SDS011;16816;44.444;26.152;2022-10-23T05:53:57;23.08;;;14.75;;
29960;SDS011;16816;44.444;26.152;2022-10-23T05:59:06;20.50;;;14.65;;
29960;SDS011;16816;44.444;26.152;2022-10-23T06:04:32;19.52;;;13.77;;
29960;SDS011;16816;44.444;26.152;2022-10-23T06:09:56;20.95;;;13.88;;
29960;SDS011;16816;44.444;26.152;2022-10-23T06:15:00;19.20;;;14.00;;
29960;SDS011;16816;44.444;26.152;2022-10-23T06:20:24;19.40;;;14.73;;
29960;SDS011;16816;44.444;26.152;2022-10-23T06:25:41;21.67;;;14.23;;
29960;SDS011;16816;44.444;26.152;2022-10-23T06:30:46;25.50;;;14.13;;
29960;SDS011;16816;44.444;26.152;2022-10-23T06:35:50;21.33;;;13.48;;
29960;SDS011;16816;44.444;26.152;2022-10-23T06:40:56;19.83;;;13.88;;
29960;SDS011;16816;44.444;26.152;2022-10-23T06:46:08;20.67;;;14.05;;
29960;SDS011;16816;44.444;26.152;2022-10-23T06:51:30;21.05;;;14.48;;
29960;SDS011;16816;44.444;26.152;2022-10-23T06:56:36;17.08;;;12.98;;
29960;SDS011;16816;44.444;26.152;2022-10-23T07:01:42;16.95;;;12.85;;
29960;SDS011;16816;44.444;26.152;2022-10-23T07:06:46;17.25;;;12.57;;
29960;SDS011;16816;44.444;26.152;2022-10-23T07:11:56;23.88;;;12.10;;
29960;SDS011;16816;44.444;26.152;2022-10-23T07:17:17;16.65;;;12.18;;
29960;SDS011;16816;44.444;26.152;2022-10-23T07:22:21;17.23;;;12.23;;
29960;SDS011;16816;44.444;26.152;2022-10-23T07:27:39;15.52;;;11.57;;
29960;SDS011;16816;44.444;26.152;2022-10-23T07:32:44;17.52;;;11.25;;
29960;SDS011;16816;44.444;26.152;2022-10-23T07:38:08;16.95;;;12.48;;
29960;SDS011;16816;44.444;26.152;2022-10-23T07:43:23;18.02;;;12.25;;
29960;SDS011;16816;44.444;26.152;2022-10-23T07:48:27;16.30;;;11.90;;
29960;SDS011;16816;44.444;26.152;2022-10-23T07:53:35;21.65;;;12.55;;
29960;SDS011;16816;44.444;26.152;2022-10-23T07:58:47;18.23;;;12.88;;
29960;SDS011;16816;44.444;26.152;2022-10-23T08:03:51;16.10;;;12.18;;
29960;SDS011;16816;44.444;26.152;2022-10-23T08:08:56;16.93;;;11.00;;
29960;SDS011;16816;44.444;26.152;2022-10-23T08:14:08;17.67;;;10.68;;
29960;SDS011;16816;44.444;26.152;2022-10-23T08:19:16;16.63;;;10.60;;
29960;SDS011;16816;44.444;26.152;2022-10-23T08:24:22;18.67;;;11.23;;
29960;SDS011;16816;44.444;26.152;2022-10-23T08:29:27;15.25;;;9.80;;
29960;SDS011;16816;44.444;26.152;2022-10-23T08:34:31;11.85;;;8.70;;
29960;SDS011;16816;44.444;26.152;2022-10-23T08:39:36;11.57;;;8.65;;
29960;SDS011;16816;44.444;26.152;2022-10-23T08:44:56;14.55;;;9.43;;
29960;SDS011;16816;44.444;26.152;2022-10-23T08:50:04;14.93;;;9.77;;
29960;SDS011;16816;44.444;26.152;2022-10-23T08:55:14;20.80;;;8.63;;
29960;SDS011;16816;44.444;26.152;2022-10-23T09:00:21;14.88;;;7.57;;
29960;SDS011;16816;44.444;26.152;2022-10-23T09:05:26;9.82;;;6.97;;
29960;SDS011;16816;44.444;26.152;2022-10-23T09:10:49;15.63;;;7.10;;
29960;SDS011;16816;44.444;26.152;2022-10-23T09:16:00;7.88;;;6.07;;
29960;SDS011;16816;44.444;26.152;2022-10-23T09:21:08;10.50;;;5.88;;
29960;SDS011;16816;44.444;26.152;2022-10-23T09:26:13;13.13;;;6.43;;
29960;SDS011;16816;44.444;26.152;2022-10-23T09:31:19;9.07;;;5.03;;
29960;SDS011;16816;44.444;26.152;2022-10-23T09:36:24;8.80;;;5.57;;
29960;SDS011;16816;44.444;26.152;2022-10-23T09:41:32;9.20;;;6.40;;
29960;SDS011;16816;44.444;26.152;2022-10-23T09:46:40;7.32;;;4.35;;
29960;SDS011;16816;44.444;26.152;2022-10-23T09:51:49;7.65;;;3.92;;
29960;SDS011;16816;44.444;26.152;2022-10-23T09:57:02;5.70;;;3.23;;
29960;SDS011;16816;44.444;26.152;2022-10-23T10:02:18;6.05;;;3.13;;
29960;SDS011;16816;44.444;26.152;2022-10-23T10:07:51;7.68;;;4.82;;
29960;SDS011;16816;44.444;26.152;2022-10-23T10:12:57;8.97;;;4.33;;
29960;SDS011;16816;44.444;26.152;2022-10-23T10:18:04;6.03;;;4.00;;
29960;SDS011;16816;44.444;26.152;2022-10-23T10:23:17;6.10;;;3.70;;
29960;SDS011;16816;44.444;26.152;2022-10-23T10:28:30;5.25;;;3.85;;
29960;SDS011;16816;44.444;26.152;2022-10-23T10:33:40;7.32;;;4.10;;
29960;SDS011;16816;44.444;26.152;2022-10-23T10:38:49;9.85;;;4.10;;
29960;SDS011;16816;44.444;26.152;2022-10-23T10:43:57;8.20;;;3.70;;
29960;SDS011;16816;44.444;26.152;2022-10-23T10:49:11;5.13;;;3.08;;
29960;SDS011;16816;44.444;26.152;2022-10-23T10:54:39;6.57;;;3.90;;
29960;SDS011;16816;44.444;26.152;2022-10-23T10:59:50;14.10;;;4.68;;
29960;SDS011;16816;44.444;26.152;2022-10-23T11:04:58;8.68;;;3.88;;
29960;SDS011;16816;44.444;26.152;2022-10-23T11:10:12;6.95;;;4.28;;
29960;SDS011;16816;44.444;26.152;2022-10-23T11:15:19;3.97;;;3.47;;
29960;SDS011;16816;44.444;26.152;2022-10-23T11:20:32;4.35;;;2.75;;
29960;SDS011;16816;44.444;26.152;2022-10-23T11:26:03;8.52;;;4.75;;
29960;SDS011;16816;44.444;26.152;2022-10-23T11:31:17;6.80;;;3.60;;
29960;SDS011;16816;44.444;26.152;2022-10-23T11:36:39;4.57;;;3.30;;
29960;SDS011;16816;44.444;26.152;2022-10-23T11:41:50;10.77;;;7.88;;
29960;SDS011;16816;44.444;26.152;2022-10-23T11:46:59;11.63;;;5.90;;
29960;SDS011;16816;44.444;26.152;2022-10-23T11:52:19;11.68;;;6.20;;
29960;SDS011;16816;44.444;26.152;2022-10-23T11:57:25;5.13;;;2.92;;
29960;SDS011;16816;44.444;26.152;2022-10-23T12:12:38;6.18;;;2.50;;
29960;SDS011;16816;44.444;26.152;2022-10-23T12:17:44;3.08;;;2.78;;
29960;SDS011;16816;44.444;26.152;2022-10-23T12:28:50;3.22;;;2.80;;
29960;SDS011;16816;44.444;26.152;2022-10-23T12:34:01;4.78;;;2.50;;
29960;SDS011;16816;44.444;26.152;2022-10-23T12:39:29;5.97;;;3.63;;
29960;SDS011;16816;44.444;26.152;2022-10-23T12:44:34;3.40;;;2.65;;
29960;SDS011;16816;44.444;26.152;2022-10-23T12:49:38;7.15;;;4.28;;
29960;SDS011;16816;44.444;26.152;2022-10-23T12:54:53;13.23;;;11.07;;
29960;SDS011;16816;44.444;26.152;2022-10-23T12:59:57;6.07;;;3.55;;
29960;SDS011;16816;44.444;26.152;2022-10-23T13:05:05;6.80;;;4.30;;
29960;SDS011;16816;44.444;26.152;2022-10-23T13:10:14;5.78;;;3.03;;
29960;SDS011;16816;44.444;26.152;2022-10-23T13:15:35;5.10;;;3.78;;
29960;SDS011;16816;44.444;26.152;2022-10-23T13:20:41;4.97;;;3.85;;
29960;SDS011;16816;44.444;26.152;2022-10-23T13:25:52;7.32;;;4.47;;
29960;SDS011;16816;44.444;26.152;2022-10-23T13:30:59;8.95;;;4.65;;
29960;SDS011;16816;44.444;26.152;2022-10-23T13:36:21;5.55;;;3.13;;
29960;SDS011;16816;44.444;26.152;2022-10-23T13:41:27;6.47;;;3.30;;
29960;SDS011;16816;44.444;26.152;2022-10-23T13:46:32;5.95;;;3.08;;
29960;SDS011;16816;44.444;26.152;2022-10-23T13:51:37;6.10;;;2.83;;
29960;SDS011;16816;44.444;26.152;2022-10-23T13:56:45;3.75;;;2.42;;
29960;SDS011;16816;44.444;26.152;2022-10-23T14:01:49;3.35;;;2.28;;
29960;SDS011;16816;44.444;26.152;2022-10-23T14:06:54;5.82;;;2.70;;
29960;SDS011;16816;44.444;26.152;2022-10-23T14:12:01;3.85;;;2.50;;
29960;SDS011;16816;44.444;26.152;2022-10-23T14:17:04;4.55;;;3.03;;
29960;SDS011;16816;44.444;26.152;2022-10-23T14:22:08;5.97;;;3.55;;
29960;SDS011;16816;44.444;26.152;2022-10-23T14:27:13;5.53;;;3.60;;
29960;SDS011;16816;44.444;26.152;2022-10-23T14:32:17;5.00;;;4.20;;
29960;SDS011;16816;44.444;26.152;2022-10-23T14:37:21;8.30;;;3.13;;
29960;SDS011;16816;44.444;26.152;2022-10-23T14:42:26;17.50;;;5.70;;
29960;SDS011;16816;44.444;26.152;2022-10-23T14:47:35;13.10;;;7.03;;
29960;SDS011;16816;44.444;26.152;2022-10-23T14:52:39;13.85;;;5.30;;
29960;SDS011;16816;44.444;26.152;2022-10-23T14:57:44;10.00;;;5.03;;
29960;SDS011;16816;44.444;26.152;2022-10-23T15:02:48;13.80;;;6.03;;
29960;SDS011;16816;44.444;26.152;2022-10-23T15:07:51;14.38;;;6.55;;
29960;SDS011;16816;44.444;26.152;2022-10-23T15:12:58;12.52;;;5.95;;
29960;SDS011;16816;44.444;26.152;2022-10-23T15:18:02;12.75;;;6.63;;
29960;SDS011;16816;44.444;26.152;2022-10-23T15:23:06;33.00;;;21.05;;
29960;SDS011;16816;44.444;26.152;2022-10-23T15:28:11;21.02;;;15.57;;
29960;SDS011;16816;44.444;26.152;2022-10-23T15:33:16;20.40;;;13.68;;
29960;SDS011;16816;44.444;26.152;2022-10-23T15:38:21;16.10;;;8.33;;
29960;SDS011;16816;44.444;26.152;2022-10-23T15:43:27;13.95;;;7.22;;
29960;SDS011;16816;44.444;26.152;2022-10-23T15:48:30;12.87;;;6.03;;
29960;SDS011;16816;44.444;26.152;2022-10-23T15:53:34;18.55;;;5.15;;
29960;SDS011;16816;44.444;26.152;2022-10-23T15:58:39;12.10;;;4.50;;
29960;SDS011;16816;44.444;26.152;2022-10-23T16:03:43;8.93;;;4.80;;
29960;SDS011;16816;44.444;26.152;2022-10-23T16:08:47;11.10;;;4.30;;
29960;SDS011;16816;44.444;26.152;2022-10-23T16:13:53;8.57;;;5.28;;
29960;SDS011;16816;44.444;26.152;2022-10-23T16:18:58;7.90;;;6.00;;
29960;SDS011;16816;44.444;26.152;2022-10-23T16:24:02;10.73;;;6.03;;
29960;SDS011;16816;44.444;26.152;2022-10-23T16:34:13;8.85;;;5.75;;
29960;SDS011;16816;44.444;26.152;2022-10-23T16:39:17;10.55;;;5.70;;
29960;SDS011;16816;44.444;26.152;2022-10-23T16:44:41;8.15;;;5.85;;
29960;SDS011;16816;44.444;26.152;2022-10-23T16:49:45;9.13;;;5.40;;
29960;SDS011;16816;44.444;26.152;2022-10-23T16:54:49;9.88;;;5.80;;
29960;SDS011;16816;44.444;26.152;2022-10-23T16:59:54;8.60;;;5.68;;
29960;SDS011;16816;44.444;26.152;2022-10-23T17:04:58;10.13;;;6.03;;
29960;SDS011;16816;44.444;26.152;2022-10-23T17:10:02;9.80;;;5.50;;
29960;SDS011;16816;44.444;26.152;2022-10-23T17:15:08;8.57;;;5.35;;
29960;SDS011;16816;44.444;26.152;2022-10-23T17:20:13;8.63;;;5.35;;
29960;SDS011;16816;44.444;26.152;2022-10-23T17:25:17;11.77;;;6.35;;
29960;SDS011;16816;44.444;26.152;2022-10-23T17:30:22;7.43;;;5.20;;
29960;SDS011;16816;44.444;26.152;2022-10-23T17:35:26;9.67;;;5.03;;
29960;SDS011;16816;44.444;26.152;2022-10-23T17:40:29;9.50;;;5.40;;
29960;SDS011;16816;44.444;26.152;2022-10-23T17:45:36;8.68;;;4.85;;
29960;SDS011;16816;44.444;26.152;2022-10-23T17:50:41;8.73;;;4.95;;
29960;SDS011;16816;44.444;26.152;2022-10-23T17:55:45;6.45;;;4.82;;
29960;SDS011;16816;44.444;26.152;2022-10-23T18:00:50;6.85;;;4.82;;
29960;SDS011;16816;44.444;26.152;2022-10-23T18:05:54;8.52;;;5.18;;
29960;SDS011;16816;44.444;26.152;2022-10-23T18:10:58;10.98;;;5.85;;
29960;SDS011;16816;44.444;26.152;2022-10-23T18:16:05;9.23;;;5.70;;
29960;SDS011;16816;44.444;26.152;2022-10-23T18:21:12;8.23;;;5.90;;
29960;SDS011;16816;44.444;26.152;2022-10-23T18:26:18;13.50;;;5.40;;
29960;SDS011;16816;44.444;26.152;2022-10-23T18:31:25;9.02;;;5.00;;
29960;SDS011;16816;44.444;26.152;2022-10-23T18:36:32;5.88;;;5.15;;
29960;SDS011;16816;44.444;26.152;2022-10-23T18:41:38;9.30;;;6.05;;
29960;SDS011;16816;44.444;26.152;2022-10-23T18:46:44;10.07;;;6.40;;
29960;SDS011;16816;44.444;26.152;2022-10-23T18:51:49;14.50;;;7.25;;
29960;SDS011;16816;44.444;26.152;2022-10-23T18:56:53;13.93;;;8.45;;
29960;SDS011;16816;44.444;26.152;2022-10-23T19:01:58;11.25;;;8.18;;
29960;SDS011;16816;44.444;26.152;2022-10-23T19:07:02;12.37;;;7.47;;
29960;SDS011;16816;44.444;26.152;2022-10-23T19:12:06;18.58;;;8.55;;
29960;SDS011;16816;44.444;26.152;2022-10-23T19:17:12;14.38;;;10.43;;
29960;SDS011;16816;44.444;26.152;2022-10-23T19:22:18;11.88;;;7.20;;
29960;SDS011;16816;44.444;26.152;2022-10-23T19:27:22;17.05;;;9.13;;
29960;SDS011;16816;44.444;26.152;2022-10-23T19:32:29;18.13;;;10.07;;
29960;SDS011;16816;44.444;26.152;2022-10-23T19:37:32;15.93;;;9.50;;
29960;SDS011;16816;44.444;26.152;2022-10-23T19:42:37;14.00;;;9.45;;
29960;SDS011;16816;44.444;26.152;2022-10-23T19:47:43;13.80;;;8.73;;
29960;SDS011;16816;44.444;26.152;2022-10-23T19:52:48;16.67;;;10.57;;
29960;SDS011;16816;44.444;26.152;2022-10-23T19:57:51;15.63;;;9.23;;
29960;SDS011;16816;44.444;26.152;2022-10-23T20:02:57;16.65;;;8.65;;
29960;SDS011;16816;44.444;26.152;2022-10-23T20:08:00;12.30;;;8.27;;
29960;SDS011;16816;44.444;26.152;2022-10-23T20:13:04;11.45;;;8.85;;
29960;SDS011;16816;44.444;26.152;2022-10-23T20:23:26;20.40;;;11.23;;
29960;SDS011;16816;44.444;26.152;2022-10-23T20:28:30;15.98;;;10.15;;
29960;SDS011;16816;44.444;26.152;2022-10-23T20:33:36;17.70;;;9.88;;
29960;SDS011;16816;44.444;26.152;2022-10-23T20:38:40;14.88;;;9.23;;
29960;SDS011;16816;44.444;26.152;2022-10-23T20:43:44;14.50;;;10.15;;
29960;SDS011;16816;44.444;26.152;2022-10-23T20:48:50;16.05;;;9.35;;
29960;SDS011;16816;44.444;26.152;2022-10-23T20:53:54;13.43;;;8.02;;
29960;SDS011;16816;44.444;26.152;2022-10-23T20:58:58;12.57;;;7.05;;
29960;SDS011;16816;44.444;26.152;2022-10-23T21:04:05;10.73;;;7.97;;
29960;SDS011;16816;44.444;26.152;2022-10-23T21:09:09;14.03;;;10.03;;
29960;SDS011;16816;44.444;26.152;2022-10-23T21:14:13;18.08;;;9.80;;
29960;SDS011;16816;44.444;26.152;2022-10-23T21:19:18;15.18;;;8.93;;
29960;SDS011;16816;44.444;26.152;2022-10-23T21:24:22;16.65;;;10.23;;
29960;SDS011;16816;44.444;26.152;2022-10-23T21:29:26;16.35;;;12.13;;
29960;SDS011;16816;44.444;26.152;2022-10-23T21:34:31;15.02;;;10.10;;
29960;SDS011;16816;44.444;26.152;2022-10-23T21:39:35;13.02;;;10.13;;
29960;SDS011;16816;44.444;26.152;2022-10-23T21:44:39;15.38;;;10.48;;
29960;SDS011;16816;44.444;26.152;2022-10-23T21:49:44;15.80;;;11.68;;
29960;SDS011;16816;44.444;26.152;2022-10-23T21:54:50;19.50;;;12.07;;
29960;SDS011;16816;44.444;26.152;2022-10-23T21:59:54;12.30;;;8.73;;
29960;SDS011;16816;44.444;26.152;2022-10-23T22:04:59;11.30;;;7.93;;
29960;SDS011;16816;44.444;26.152;2022-10-23T22:10:03;12.27;;;8.68;;
29960;SDS011;16816;44.444;26.152;2022-10-23T22:15:07;10.10;;;5.45;;
29960;SDS011;16816;44.444;26.152;2022-10-23T22:20:13;12.38;;;7.63;;
29960;SDS011;16816;44.444;26.152;2022-10-23T22:25:17;17.50;;;11.23;;
29960;SDS011;16816;44.444;26.152;2022-10-23T22:30:21;16.30;;;11.75;;
29960;SDS011;16816;44.444;26.152;2022-10-23T22:35:26;22.23;;;14.48;;
29960;SDS011;16816;44.444;26.152;2022-10-23T22:40:30;15.15;;;9.70;;
29960;SDS011;16816;44.444;26.152;2022-10-23T22:45:34;25.42;;;14.27;;
29960;SDS011;16816;44.444;26.152;2022-10-23T22:50:39;21.15;;;13.75;;
29960;SDS011;16816;44.444;26.152;2022-10-23T22:55:43;21.58;;;15.55;;
29960;SDS011;16816;44.444;26.152;2022-10-23T23:00:47;20.95;;;15.10;;
29960;SDS011;16816;44.444;26.152;2022-10-23T23:05:52;23.88;;;15.00;;
29960;SDS011;16816;44.444;26.152;2022-10-23T23:10:56;20.30;;;15.83;;
29960;SDS011;16816;44.444;26.152;2022-10-23T23:16:01;26.23;;;17.42;;
29960;SDS011;16816;44.444;26.152;2022-10-23T23:21:06;25.80;;;17.90;;
29960;SDS011;16816;44.444;26.152;2022-10-23T23:26:10;27.73;;;18.07;;
29960;SDS011;16816;44.444;26.152;2022-10-23T23:31:15;30.27;;;18.55;;
29960;SDS011;16816;44.444;26.152;2022-10-23T23:36:22;24.90;;;19.35;;
29960;SDS011;16816;44.444;26.152;2022-10-23T23:41:27;31.30;;;21.15;;
29960;SDS011;16816;44.444;26.152;2022-10-23T23:46:31;32.50;;;25.23;;
29960;SDS011;16816;44.444;26.152;2022-10-23T23:51:37;36.63;;;26.05;;
29960;SDS011;16816;44.444;26.152;2022-10-23T23:56:40;27.08;;;21.83;;
